createdAt,value
2024-02-08T00:02:10.325Z,2.10
2024-02-08T00:04:38.249Z,2.11
2024-02-08T00:07:06.496Z,2.12
2024-02-08T00:09:34.142Z,2.13
2024-02-08T00:12:01.724Z,2.14
2024-02-08T00:14:29.364Z,2.15
2024-02-08T00:16:57.079Z,2.15
2024-02-08T00:19:24.715Z,2.14
2024-02-08T00:21:52.358Z,2.14
2024-02-08T00:24:20.008Z,2.12
2024-02-08T00:26:47.580Z,2.14
2024-02-08T00:29:15.300Z,2.16
2024-02-08T00:31:43.071Z,2.19
2024-02-08T00:34:11.231Z,2.23
2024-02-08T00:36:39.246Z,2.24
2024-02-08T00:39:06.967Z,2.25
2024-02-08T00:41:34.783Z,2.25
2024-02-08T00:44:02.357Z,2.24
2024-02-08T00:46:30.080Z,2.24
2024-02-08T00:48:57.872Z,2.22
2024-02-08T00:51:25.527Z,2.22
2024-02-08T00:53:53.084Z,2.20
2024-02-08T00:56:20.542Z,2.17
2024-02-08T00:58:48.494Z,2.15
2024-02-08T01:01:16.401Z,2.15
2024-02-08T01:03:43.985Z,2.16
2024-02-08T01:06:11.628Z,2.18
2024-02-08T01:08:39.152Z,2.20
2024-02-08T01:11:07.055Z,2.20
2024-02-08T01:13:34.909Z,2.21
2024-02-08T01:16:02.671Z,2.22
2024-02-08T01:18:30.420Z,2.22
2024-02-08T01:20:58.089Z,2.21
2024-02-08T01:23:25.627Z,2.24
2024-02-08T01:25:53.741Z,2.25
2024-02-08T01:28:21.260Z,2.27
2024-02-08T01:30:48.927Z,2.27
2024-02-08T01:33:16.587Z,2.26
2024-02-08T01:35:44.143Z,2.25
2024-02-08T01:38:11.765Z,2.24
2024-02-08T01:40:39.490Z,2.25
2024-02-08T01:43:07.257Z,2.25
2024-02-08T01:45:35.310Z,2.25
2024-02-08T01:48:03.562Z,2.25
2024-02-08T01:50:31.546Z,2.26
2024-02-08T01:52:59.334Z,2.26
2024-02-08T01:55:26.996Z,2.24
2024-02-08T01:57:54.637Z,2.22
2024-02-08T02:00:22.293Z,2.21
2024-02-08T02:02:50.078Z,2.21
2024-02-08T02:05:17.768Z,2.19
2024-02-08T02:07:45.592Z,2.17
2024-02-08T02:10:13.274Z,2.16
2024-02-08T02:12:41.430Z,2.13
2024-02-08T02:15:08.983Z,2.12
2024-02-08T02:17:36.654Z,2.08
2024-02-08T02:20:04.273Z,2.07
2024-02-08T02:22:32.093Z,2.06
2024-02-08T02:24:59.732Z,2.04
2024-02-08T02:27:27.393Z,2.02
2024-02-08T02:29:54.940Z,2.01
2024-02-08T02:32:22.772Z,1.98
2024-02-08T02:34:50.611Z,1.94
2024-02-08T02:37:18.277Z,1.91
2024-02-08T02:39:46.219Z,1.88
2024-02-08T02:42:13.789Z,1.86
2024-02-08T02:44:41.466Z,1.84
2024-02-08T02:47:09.142Z,1.81
2024-02-08T02:49:36.889Z,1.78
2024-02-08T02:52:04.517Z,1.77
2024-02-08T02:54:32.111Z,1.77
2024-02-08T02:56:59.736Z,1.77
2024-02-08T02:59:27.394Z,1.76
2024-02-08T03:01:55.065Z,1.75
2024-02-08T03:04:23.133Z,1.75
2024-02-08T03:06:50.705Z,1.75
2024-02-08T03:09:18.378Z,1.75
2024-02-08T03:11:45.917Z,1.75
2024-02-08T03:14:13.713Z,1.75
2024-02-08T03:16:41.452Z,1.76
2024-02-08T03:19:09.144Z,1.76
2024-02-08T03:21:36.764Z,1.75
2024-02-08T03:24:04.423Z,1.75
2024-02-08T03:26:31.991Z,1.74
2024-02-08T03:28:59.570Z,1.73
2024-02-08T03:31:27.890Z,1.71
2024-02-08T03:33:55.822Z,1.68
2024-02-08T03:36:23.449Z,1.66
2024-02-08T03:38:51.112Z,1.64
2024-02-08T03:41:18.817Z,1.63
2024-02-08T03:43:46.458Z,1.62
2024-02-08T03:46:14.202Z,1.63
2024-02-08T03:48:41.888Z,1.63
2024-02-08T03:51:09.726Z,1.64
2024-02-08T03:53:37.309Z,1.64
2024-02-08T03:56:05.318Z,1.66
2024-02-08T03:58:33.068Z,1.66
2024-02-08T04:01:00.823Z,1.65
2024-02-08T04:03:28.365Z,1.64
2024-02-08T04:05:55.934Z,1.65
2024-02-08T04:08:23.591Z,1.64
2024-02-08T04:10:51.487Z,1.63
2024-02-08T04:13:19.702Z,1.62
2024-02-08T04:15:47.275Z,1.62
2024-02-08T04:18:14.964Z,1.63
2024-02-08T04:20:42.659Z,1.63
2024-02-08T04:23:10.954Z,1.63
2024-02-08T04:25:38.833Z,1.62
2024-02-08T04:28:06.501Z,1.63
2024-02-08T04:30:34.052Z,1.63
2024-02-08T04:33:01.799Z,1.63
2024-02-08T04:35:29.574Z,1.60
2024-02-08T04:37:57.304Z,1.58
2024-02-08T04:40:25.066Z,1.55
2024-02-08T04:42:52.766Z,1.53
2024-02-08T04:45:20.326Z,1.50
2024-02-08T04:47:48.356Z,1.49
2024-02-08T04:50:16.234Z,1.49
2024-02-08T04:52:44.012Z,1.50
2024-02-08T04:55:11.782Z,1.49
2024-02-08T04:57:39.352Z,1.47
2024-02-08T05:00:07.144Z,1.43
2024-02-08T05:02:34.783Z,1.40
2024-02-08T05:05:02.596Z,1.35
2024-02-08T05:07:30.428Z,1.30
2024-02-08T05:09:57.991Z,1.25
2024-02-08T05:12:26.050Z,1.21
2024-02-08T05:14:53.598Z,1.19
2024-02-08T05:17:21.153Z,1.16
2024-02-08T05:19:48.756Z,1.12
2024-02-08T05:22:16.508Z,1.08
2024-02-08T05:24:44.227Z,1.05
2024-02-08T05:27:12.011Z,1.03
2024-02-08T05:29:39.565Z,0.99
2024-02-08T05:32:07.224Z,0.95
2024-02-08T05:34:34.874Z,0.91
2024-02-08T05:37:02.633Z,0.86
2024-02-08T05:39:30.624Z,0.83
2024-02-08T05:41:59.273Z,0.83
2024-02-08T05:44:27.183Z,0.82
2024-02-08T05:46:54.731Z,0.82
2024-02-08T05:49:24.631Z,0.83
2024-02-08T05:51:54.371Z,0.84
2024-02-08T05:54:22.279Z,0.83
2024-02-08T05:56:53.572Z,0.82
2024-02-08T05:59:22.166Z,0.81
2024-02-08T06:01:50.080Z,0.81
2024-02-08T06:04:17.940Z,0.80
2024-02-08T06:06:45.681Z,0.78
2024-02-08T06:09:13.328Z,0.76
2024-02-08T06:11:40.872Z,0.76
2024-02-08T06:14:08.542Z,0.78
2024-02-08T06:16:36.154Z,0.82
2024-02-08T06:19:04.089Z,0.83
2024-02-08T06:21:31.829Z,0.82
2024-02-08T06:23:59.390Z,0.81
2024-02-08T06:26:27.048Z,0.83
2024-02-08T06:28:55.301Z,0.86
2024-02-08T06:31:23.160Z,0.90
2024-02-08T06:33:51.027Z,0.93
2024-02-08T06:36:18.713Z,0.94
2024-02-08T06:38:46.378Z,0.95
2024-02-08T06:41:14.094Z,0.95
2024-02-08T06:43:41.910Z,0.97
2024-02-08T06:46:10.071Z,0.99
2024-02-08T06:48:38.006Z,1.05
2024-02-08T06:51:05.910Z,1.11
2024-02-08T06:53:37.433Z,1.18
2024-02-08T06:56:06.576Z,1.26
2024-02-08T06:58:34.155Z,1.38
2024-02-08T07:01:01.995Z,1.50
2024-02-08T07:03:29.832Z,1.62
2024-02-08T07:05:57.634Z,1.74
2024-02-08T07:08:25.479Z,1.85
2024-02-08T07:10:53.257Z,1.95
2024-02-08T07:13:21.070Z,2.03
2024-02-08T07:15:48.935Z,2.12
2024-02-08T07:18:16.870Z,2.20
2024-02-08T07:20:45.039Z,2.26
2024-02-08T07:23:12.789Z,2.30
2024-02-08T07:25:40.582Z,2.34
2024-02-08T07:28:08.463Z,2.37
2024-02-08T07:30:36.076Z,2.39
2024-02-08T07:33:03.803Z,2.41
2024-02-08T07:35:31.516Z,2.45
2024-02-08T07:37:59.165Z,2.50
2024-02-08T07:40:26.822Z,2.51
2024-02-08T07:42:54.510Z,2.51
2024-02-08T07:45:22.556Z,2.51
2024-02-08T07:47:50.234Z,2.52
2024-02-08T07:50:17.799Z,2.54
2024-02-08T07:52:45.444Z,2.58
2024-02-08T07:55:13.064Z,2.64
2024-02-08T07:57:40.866Z,2.69
2024-02-08T08:00:08.419Z,2.77
2024-02-08T08:02:36.096Z,2.87
2024-02-08T08:05:04.084Z,2.94
2024-02-08T08:07:32.182Z,3.02
2024-02-08T08:10:00.179Z,3.15
2024-02-08T08:12:27.958Z,3.28
2024-02-08T08:14:55.523Z,3.40
2024-02-08T08:17:23.210Z,3.48
2024-02-08T08:19:50.953Z,3.54
2024-02-08T08:22:18.646Z,3.56
2024-02-08T08:24:46.400Z,3.59
2024-02-08T08:27:13.926Z,3.63
2024-02-08T08:29:41.597Z,3.73
2024-02-08T08:32:09.146Z,3.88
2024-02-08T08:34:36.952Z,4.03
2024-02-08T08:37:05.728Z,4.18
2024-02-08T08:39:33.565Z,4.35
2024-02-08T08:42:01.127Z,4.49
2024-02-08T08:44:28.679Z,4.55
2024-02-08T08:46:56.241Z,4.61
2024-02-08T08:49:24.052Z,4.75
2024-02-08T08:51:51.903Z,4.99
2024-02-08T08:54:19.544Z,5.26
2024-02-08T08:56:47.198Z,5.54
2024-02-08T08:59:15.061Z,5.89
2024-02-08T09:01:42.809Z,6.24
2024-02-08T09:04:10.856Z,7.17
2024-02-08T09:06:40.813Z,7.83
2024-02-08T09:09:09.103Z,8.07
2024-02-08T09:11:36.850Z,8.29
2024-02-08T09:14:04.421Z,9.10
2024-02-08T09:16:32.117Z,9.71
2024-02-08T09:18:59.783Z,9.91
2024-02-08T09:21:27.639Z,10.26
2024-02-08T09:23:55.376Z,10.98
2024-02-08T09:26:23.336Z,11.41
2024-02-08T09:28:50.904Z,11.38
2024-02-08T09:31:18.745Z,11.41
2024-02-08T09:33:47.462Z,11.40
2024-02-08T09:36:15.870Z,11.49
2024-02-08T09:38:43.690Z,11.69
2024-02-08T09:41:11.360Z,12.44
2024-02-08T09:43:39.072Z,13.28
2024-02-08T09:46:06.708Z,14.34
2024-02-08T09:48:34.344Z,14.65
2024-02-08T09:51:02.398Z,14.44
2024-02-08T09:53:30.026Z,14.07
2024-02-08T09:55:57.834Z,13.69
2024-02-08T09:58:25.802Z,13.60
2024-02-08T10:00:53.441Z,14.22
2024-02-08T10:03:21.247Z,14.39
2024-02-08T10:05:49.620Z,13.71
2024-02-08T10:08:17.268Z,12.85
2024-02-08T10:10:45.321Z,12.16
2024-02-08T10:13:13.681Z,11.52
2024-02-08T10:15:41.650Z,10.84
2024-02-08T10:18:09.760Z,10.19
2024-02-08T10:20:37.525Z,9.76
2024-02-08T10:23:05.190Z,9.37
2024-02-08T10:25:32.845Z,9.08
2024-02-08T10:28:00.769Z,8.79
2024-02-08T10:30:28.377Z,8.44
2024-02-08T10:32:56.184Z,8.14
2024-02-08T10:35:24.572Z,7.87
2024-02-08T10:37:52.174Z,7.72
2024-02-08T10:40:19.776Z,7.71
2024-02-08T10:42:47.832Z,7.74
2024-02-08T10:45:15.620Z,7.72
2024-02-08T10:47:44.060Z,7.66
2024-02-08T10:50:12.557Z,7.63
2024-02-08T10:52:40.562Z,7.68
2024-02-08T10:55:08.394Z,7.85
2024-02-08T10:57:36.033Z,8.08
2024-02-08T11:00:03.820Z,8.19
2024-02-08T11:02:31.356Z,8.04
2024-02-08T11:04:59.580Z,7.82
2024-02-08T11:07:27.240Z,7.62
2024-02-08T11:09:55.138Z,7.42
2024-02-08T11:12:23.261Z,7.24
2024-02-08T11:14:51.084Z,7.06
2024-02-08T11:17:18.770Z,6.80
2024-02-08T11:19:46.386Z,6.61
2024-02-08T11:22:14.127Z,6.50
2024-02-08T11:24:41.837Z,6.39
2024-02-08T11:27:09.711Z,6.32
2024-02-08T11:29:37.269Z,6.22
2024-02-08T11:32:05.236Z,6.07
2024-02-08T11:34:32.831Z,5.98
2024-02-08T11:37:00.909Z,5.98
2024-02-08T11:39:28.727Z,5.99
2024-02-08T11:41:56.507Z,6.04
2024-02-08T11:44:24.255Z,6.02
2024-02-08T11:46:51.941Z,5.92
2024-02-08T11:49:19.704Z,5.84
2024-02-08T11:51:47.625Z,5.73
2024-02-08T11:54:15.412Z,5.62
2024-02-08T11:56:43.176Z,5.50
2024-02-08T11:59:10.846Z,5.45
2024-02-08T12:01:38.572Z,5.42
2024-02-08T12:04:06.475Z,5.40
2024-02-08T12:06:34.182Z,5.37
2024-02-08T12:09:01.912Z,5.35
2024-02-08T12:11:29.562Z,5.33
2024-02-08T12:14:01.118Z,5.33
2024-02-08T12:16:32.015Z,5.30
2024-02-08T12:18:59.770Z,5.28
2024-02-08T12:21:27.685Z,5.28
2024-02-08T12:23:55.346Z,5.26
2024-02-08T12:26:23.011Z,5.23
2024-02-08T12:28:50.666Z,5.26
2024-02-08T12:31:19.139Z,5.30
2024-02-08T12:33:47.664Z,5.34
2024-02-08T12:36:15.517Z,5.40
2024-02-08T12:38:43.151Z,5.45
2024-02-08T12:41:10.814Z,5.51
2024-02-08T12:43:38.491Z,5.49
2024-02-08T12:46:06.694Z,5.42
2024-02-08T12:48:34.334Z,5.39
2024-02-08T12:51:01.872Z,5.36
2024-02-08T12:53:29.636Z,5.29
2024-02-08T12:55:57.200Z,5.21
2024-02-08T12:58:24.873Z,5.17
2024-02-08T13:00:52.468Z,5.16
2024-02-08T13:03:20.176Z,5.13
2024-02-08T13:05:47.844Z,5.10
2024-02-08T13:08:15.637Z,5.09
2024-02-08T13:10:43.800Z,5.04
2024-02-08T13:13:12.641Z,4.97
2024-02-08T13:15:41.047Z,4.95
2024-02-08T13:18:08.647Z,4.95
2024-02-08T13:23:04.048Z,4.98
2024-02-08T13:25:31.942Z,4.99
2024-02-08T13:27:59.749Z,4.95
2024-02-08T13:30:27.527Z,4.92
2024-02-08T13:32:55.155Z,4.92
2024-02-08T13:35:23.070Z,4.93
2024-02-08T13:37:51.590Z,4.93
2024-02-08T13:40:19.748Z,4.90
2024-02-08T13:42:54.194Z,4.86
2024-02-08T13:45:23.330Z,4.79
2024-02-08T13:47:51.180Z,4.73
2024-02-08T13:50:19.212Z,4.67
2024-02-08T13:52:47.073Z,4.61
2024-02-08T13:55:14.929Z,4.56
2024-02-08T13:57:42.968Z,4.53
2024-02-08T14:00:10.524Z,4.50
2024-02-08T14:02:38.420Z,4.47
2024-02-08T14:05:06.449Z,4.41
2024-02-08T14:07:34.164Z,4.37
2024-02-08T14:10:02.089Z,4.38
2024-02-08T14:12:29.963Z,4.39
2024-02-08T14:14:57.510Z,4.37
2024-02-08T14:17:25.180Z,4.34
2024-02-08T14:19:53.018Z,4.29
2024-02-08T14:22:20.763Z,4.25
2024-02-08T14:24:48.814Z,4.22
2024-02-08T14:27:16.637Z,4.22
2024-02-08T14:29:44.305Z,4.25
2024-02-08T14:32:17.202Z,4.29
2024-02-08T14:34:54.116Z,4.33
2024-02-08T14:37:21.861Z,4.33
2024-02-08T14:39:49.439Z,4.29
2024-02-08T14:42:17.050Z,4.27
2024-02-08T14:44:44.615Z,4.25
2024-02-08T14:47:12.269Z,4.23
2024-02-08T14:49:40.182Z,4.20
2024-02-08T14:52:07.862Z,4.16
2024-02-08T14:54:36.269Z,4.12
2024-02-08T14:57:04.572Z,4.10
2024-02-08T14:59:32.128Z,4.11
2024-02-08T15:01:59.980Z,4.11
2024-02-08T15:04:27.686Z,4.11
2024-02-08T15:06:55.420Z,4.09
2024-02-08T15:09:23.074Z,4.05
2024-02-08T15:11:50.728Z,4.04
2024-02-08T15:14:18.599Z,4.07
2024-02-08T15:16:46.467Z,4.09
2024-02-08T15:19:15.475Z,4.11
2024-02-08T15:21:44.307Z,4.12
2024-02-08T15:24:12.036Z,4.09
2024-02-08T15:26:39.581Z,4.10
2024-02-08T15:29:07.239Z,4.11
2024-02-08T15:31:35.098Z,4.11
2024-02-08T15:34:03.156Z,4.12
2024-02-08T15:36:30.934Z,4.12
2024-02-08T15:38:58.617Z,4.13
2024-02-08T15:41:26.561Z,4.15
2024-02-08T15:43:54.220Z,4.15
2024-02-08T15:46:22.044Z,4.15
2024-02-08T15:48:49.784Z,4.14
2024-02-08T15:51:17.717Z,4.11
2024-02-08T15:53:45.383Z,4.09
2024-02-08T15:56:12.937Z,4.06
2024-02-08T15:58:40.771Z,4.05
2024-02-08T16:01:08.728Z,4.05
2024-02-08T16:03:36.815Z,4.06
2024-02-08T16:06:04.852Z,4.07
2024-02-08T16:08:35.574Z,4.05
2024-02-08T16:11:03.625Z,4.03
2024-02-08T16:13:31.278Z,4.03
2024-02-08T16:15:59.092Z,4.03
2024-02-08T16:18:27.638Z,4.01
2024-02-08T16:20:55.969Z,4.02
2024-02-08T16:23:23.773Z,4.04
2024-02-08T16:25:51.392Z,4.04
2024-02-08T16:28:19.517Z,4.05
2024-02-08T16:30:47.166Z,4.03
2024-02-08T16:33:15.233Z,4.00
2024-02-08T16:35:42.976Z,3.97
2024-02-08T16:38:10.668Z,3.93
2024-02-08T16:40:38.343Z,3.90
2024-02-08T16:43:06.021Z,3.86
2024-02-08T16:45:33.755Z,3.83
2024-02-08T16:48:01.557Z,3.83
2024-02-08T16:50:29.180Z,3.82
2024-02-08T16:52:56.735Z,3.79
2024-02-08T16:55:24.677Z,3.73
2024-02-08T16:57:52.389Z,3.71
2024-02-08T17:00:20.025Z,3.69
2024-02-08T17:02:47.685Z,3.68
2024-02-08T17:05:15.384Z,3.67
2024-02-08T17:07:43.316Z,3.65
2024-02-08T17:10:11.036Z,3.65
2024-02-08T17:12:38.752Z,3.65
2024-02-08T17:15:06.404Z,3.64
2024-02-08T17:17:34.025Z,3.64
2024-02-08T17:20:01.933Z,3.63
2024-02-08T17:22:30.142Z,3.61
2024-02-08T17:24:58.101Z,3.57
2024-02-08T17:27:25.845Z,3.49
2024-02-08T17:29:54.007Z,3.45
2024-02-08T17:32:21.705Z,3.46
2024-02-08T17:34:49.447Z,3.50
2024-02-08T17:37:17.120Z,3.54
2024-02-08T17:39:44.859Z,3.52
2024-02-08T17:42:12.418Z,3.53
2024-02-08T17:44:40.677Z,3.55
2024-02-08T17:47:09.106Z,3.56
2024-02-08T17:49:36.694Z,3.58
2024-02-08T17:52:04.556Z,3.59
2024-02-08T17:54:32.159Z,3.60
2024-02-08T17:56:59.841Z,3.60
2024-02-08T17:59:27.388Z,3.61
2024-02-08T18:01:55.497Z,3.62
2024-02-08T18:04:24.006Z,3.62
2024-02-08T18:06:51.855Z,3.59
2024-02-08T18:09:19.570Z,3.58
2024-02-08T18:11:47.538Z,3.59
2024-02-08T18:14:15.091Z,3.58
2024-02-08T18:16:42.764Z,3.55
2024-02-08T18:19:10.403Z,3.55
2024-02-08T18:21:38.177Z,3.54
2024-02-08T18:24:05.845Z,3.55
2024-02-08T18:26:33.518Z,3.55
2024-02-08T18:29:01.148Z,3.54
2024-02-08T18:31:29.015Z,3.48
2024-02-08T18:33:56.886Z,3.46
2024-02-08T18:36:24.655Z,3.44
2024-02-08T18:38:52.730Z,3.44
2024-02-08T18:41:20.604Z,3.44
2024-02-08T18:43:48.353Z,3.43
2024-02-08T18:46:16.678Z,3.42
2024-02-08T18:48:46.626Z,3.38
2024-02-08T18:51:14.836Z,3.35
2024-02-08T18:53:42.487Z,3.35
2024-02-08T18:56:10.050Z,3.35
2024-02-08T18:58:37.761Z,3.35
2024-02-08T19:01:05.627Z,3.35
2024-02-08T19:03:33.779Z,3.34
2024-02-08T19:06:01.755Z,3.34
2024-02-08T19:08:29.687Z,3.36
2024-02-08T19:10:57.487Z,3.37
2024-02-08T19:13:25.157Z,3.37
2024-02-08T19:15:53.031Z,3.38
2024-02-08T19:18:21.016Z,3.42
2024-02-08T19:20:48.802Z,3.44
2024-02-08T19:23:16.611Z,3.46
2024-02-08T19:25:44.168Z,3.47
2024-02-08T19:28:11.814Z,3.48
2024-02-08T19:30:39.769Z,3.50
2024-02-08T19:33:07.354Z,3.53
2024-02-08T19:35:35.051Z,3.55
2024-02-08T19:38:02.870Z,3.58
2024-02-08T19:40:30.438Z,3.61
2024-02-08T19:42:58.101Z,3.61
2024-02-08T19:45:25.840Z,3.62
2024-02-08T19:47:53.472Z,3.62
2024-02-08T19:50:21.259Z,3.62
2024-02-08T19:52:49.144Z,3.63
2024-02-08T19:55:17.532Z,3.64
2024-02-08T19:57:45.068Z,3.64
2024-02-08T20:00:12.722Z,3.65
2024-02-08T20:02:40.382Z,3.66
2024-02-08T20:05:08.333Z,3.67
2024-02-08T20:07:36.154Z,3.68
2024-02-08T20:10:03.881Z,3.69
2024-02-08T20:12:31.646Z,3.70
2024-02-08T20:14:59.209Z,3.69
2024-02-08T20:17:26.786Z,3.68
2024-02-08T20:19:54.845Z,3.67
2024-02-08T20:22:22.585Z,3.64
2024-02-08T20:24:50.270Z,3.61
2024-02-08T20:27:17.821Z,3.59
2024-02-08T20:29:45.502Z,3.54
2024-02-08T20:32:13.143Z,3.49
2024-02-08T20:34:40.762Z,3.46
2024-02-08T20:37:08.667Z,3.44
2024-02-08T20:39:36.342Z,3.44
2024-02-08T20:42:04.008Z,3.44
2024-02-08T20:44:31.575Z,3.45
2024-02-08T20:46:59.212Z,3.44
2024-02-08T20:49:26.906Z,3.40
2024-02-08T20:51:54.476Z,3.38
2024-02-08T20:54:22.096Z,3.39
2024-02-08T20:56:49.769Z,3.36
2024-02-08T20:59:17.526Z,3.37
2024-02-08T21:01:45.251Z,3.40
2024-02-08T21:04:12.904Z,3.43
2024-02-08T21:06:40.619Z,3.46
2024-02-08T21:09:08.658Z,3.47
2024-02-08T21:11:36.351Z,3.48
2024-02-08T21:14:04.124Z,3.50
2024-02-08T21:16:31.770Z,3.53
2024-02-08T21:18:59.598Z,3.55
2024-02-08T21:21:27.399Z,3.58
2024-02-08T21:23:55.065Z,3.60
2024-02-08T21:26:22.741Z,3.62
2024-02-08T21:28:50.391Z,3.64
2024-02-08T21:31:18.082Z,3.65
2024-02-08T21:33:45.741Z,3.68
2024-02-08T21:36:13.688Z,3.70
2024-02-08T21:38:41.342Z,3.71
2024-02-08T21:41:09.014Z,3.73
2024-02-08T21:43:36.742Z,3.73
2024-02-08T21:46:04.447Z,3.72
2024-02-08T21:48:32.254Z,3.69
2024-02-08T21:51:00.169Z,3.69
2024-02-08T21:53:27.830Z,3.68
2024-02-08T21:55:55.498Z,3.69
2024-02-08T21:58:23.471Z,3.68
2024-02-08T22:03:35.881Z,3.67
2024-02-08T22:06:03.793Z,3.67
2024-02-08T22:08:31.732Z,3.68
2024-02-08T22:10:59.583Z,3.67
2024-02-08T22:13:27.275Z,3.65
2024-02-08T22:15:54.939Z,3.61
2024-02-08T22:18:22.757Z,3.59
2024-02-08T22:20:50.529Z,3.58
2024-02-08T22:23:18.092Z,3.57
2024-02-08T22:25:46.058Z,3.56
2024-02-08T22:28:13.797Z,3.56
2024-02-08T22:30:41.486Z,3.54
2024-02-08T22:33:09.250Z,3.50
2024-02-08T22:35:37.058Z,3.47
2024-02-08T22:38:04.881Z,3.46
2024-02-08T22:40:32.561Z,3.44
2024-02-08T22:43:00.334Z,3.40
2024-02-08T22:45:27.859Z,3.38
2024-02-08T22:47:55.551Z,3.38
2024-02-08T22:50:23.919Z,3.37
2024-02-08T22:52:52.010Z,3.37
2024-02-08T22:55:19.690Z,3.37
2024-02-08T22:57:47.500Z,3.38
2024-02-08T23:00:15.066Z,3.37
2024-02-08T23:02:42.745Z,3.37
2024-02-08T23:05:10.598Z,3.36
2024-02-08T23:07:38.347Z,3.37
2024-02-08T23:10:06.255Z,3.38
2024-02-08T23:12:33.878Z,3.37
2024-02-08T23:15:01.861Z,3.35
2024-02-08T23:17:29.576Z,3.32
2024-02-08T23:19:57.579Z,3.32
2024-02-08T23:22:27.208Z,3.31
2024-02-08T23:24:55.244Z,3.32
2024-02-08T23:27:22.919Z,3.32
2024-02-08T23:29:50.577Z,3.32
2024-02-08T23:32:18.146Z,3.33
2024-02-08T23:34:45.735Z,3.32
2024-02-08T23:37:13.414Z,3.31
2024-02-08T23:39:41.240Z,3.32
2024-02-08T23:42:09.416Z,3.32
2024-02-08T23:44:37.174Z,3.30
2024-02-08T23:47:04.731Z,3.29
2024-02-08T23:49:32.421Z,3.28
2024-02-08T23:52:00.325Z,3.27
2024-02-08T23:54:28.226Z,3.28
2024-02-08T23:56:55.777Z,3.29
2024-02-08T23:59:23.443Z,3.30
